Langdon, Kansas
Current Conditions -  °F | °C
As of 2:55 PM on Friday 19 Dec 2014 (Local Time) from KPTT Reporting Station
Overcast Overcast  
Wind Chill: 31°   Ceiling: 1500
Heat Index: 37°   Visibility: 10mi
Dew Point: 34°   Wind: 8mph
Humidity: 87%   Direction: 230°SW
Pressure: 30.15"   Gusts: NA
Location:  37.8171°N, 98.3602°W
Report Text: KPTT 192055Z AUTO 23007KT 10SM SCT010 OVC015 03/01 A3015 RMK AO2
Loading
Personal Weather Stations






























Interactive Weather Map New forecast layout! Learn more

10-Day Weather Forecast

Advertisements
Track Severe Weather on mobile